ホニアラ の空港の天気 - METARとTAF

ホニアラ国際空港 ( AGGH / HIR ) - ソロモン諸島 ガダルカナル島ホニアラ
飛行場実況気象(Metar)
観測時間04/22 04:00 SBT (04/21 17:00 UTC)
風向・風速南南東 2m/s
視程10km以上
天気現象煙霧
少しの雲 雲底高度 460m
全天の4割程度の雲 雲底高度 3050m
気温24℃
湿度94%
気圧1007hPa
METARAGGH 211700Z 16004KT 9999 HZ FEW015 SCT100 24/23 Q1007
過去の天気等 Google飛行場航空写真 Wunderground天気予報

過去48時間のMETAR

飛行場予報(TAF)
発表時間: 4/21 22:10 SBT (4/21 11:10 UTC)
予報対象時間: 21日23時 SBT ~ 22日23時 SBT
風向・風速不定 2m/s
視程10km以上
少しの雲 雲底高度 520m
全天の4割程度の雲 雲底高度 910m
TAF AGGH 211110Z 2112/2212 VRB03KT 9999 FEW017 SCT030 T 25 24 24 26 Q 1009 1007 1006 1008